ECMII LRTR-LYBE
Flight info
| Callsign | ECMII |
|---|---|
| Flight time | 0h 45m |
| Altitude | 1234 |
| Route | PA BANVI MAKIS SAZIV |
| Aircraft | MI2/L-V/N |
Departure
| Time | 2026-04-28 11:27 |
|---|---|
| Airport | Timișoara Traian Vuia International Airport (LRTR) |
Arrival
| Time | 2026-04-28 12:12 |
|---|---|
| Airport | Belgrade Nikola Tesla Airport (LYBE) |
| Time | Latitude | Longitude | Altitude | Speed | Heading |
|---|---|---|---|---|---|
| 2026-04-28 11:26 | 45.85133 | 21.40731 | 866 ft | 104 kts | 184° |
| 2026-04-28 11:27 | 45.84403 | 21.40743 | 893 ft | 104 kts | 182° |
| 2026-04-28 11:27 | 45.83702 | 21.40891 | 967 ft | 100 kts | 174° |
| 2026-04-28 11:27 | 45.83020 | 21.40706 | 983 ft | 104 kts | 212° |
| 2026-04-28 11:27 | 45.82450 | 21.40073 | 970 ft | 106 kts | 232° |
| 2026-04-28 11:28 | 45.81906 | 21.39404 | 1027 ft | 102 kts | 224° |
| 2026-04-28 11:28 | 45.81358 | 21.38770 | 1055 ft | 103 kts | 228° |
| 2026-04-28 11:28 | 45.80816 | 21.38097 | 1094 ft | 103 kts | 218° |
| 2026-04-28 11:28 | 45.80168 | 21.37607 | 1110 ft | 106 kts | 210° |
| 2026-04-28 11:29 | 45.79513 | 21.37088 | 1120 ft | 106 kts | 214° |
| 2026-04-28 11:29 | 45.78864 | 21.36604 | 1147 ft | 107 kts | 211° |
| 2026-04-28 11:29 | 45.78184 | 21.36136 | 1185 ft | 109 kts | 206° |
| 2026-04-28 11:29 | 45.77467 | 21.35764 | 1213 ft | 109 kts | 198° |
| 2026-04-28 11:30 | 45.76776 | 21.35304 | 1182 ft | 111 kts | 217° |
| 2026-04-28 11:30 | 45.75665 | 21.33875 | 1156 ft | 108 kts | 231° |
| 2026-04-28 11:30 | 45.75150 | 21.33059 | 1145 ft | 111 kts | 239° |
| 2026-04-28 11:31 | 45.74681 | 21.32205 | 1175 ft | 110 kts | 238° |
| 2026-04-28 11:31 | 45.74192 | 21.31340 | 1129 ft | 111 kts | 239° |
| 2026-04-28 11:31 | 45.73706 | 21.30466 | 1050 ft | 117 kts | 237° |
| 2026-04-28 11:31 | 45.73159 | 21.29626 | 1016 ft | 116 kts | 227° |
| 2026-04-28 11:32 | 45.72533 | 21.28943 | 1029 ft | 110 kts | 221° |
| 2026-04-28 11:32 | 45.71901 | 21.28314 | 998 ft | 113 kts | 220° |
| 2026-04-28 11:32 | 45.71230 | 21.27700 | 920 ft | 114 kts | 217° |
| 2026-04-28 11:32 | 45.70562 | 21.27142 | 955 ft | 110 kts | 213° |
| 2026-04-28 11:33 | 45.69892 | 21.26599 | 943 ft | 110 kts | 215° |
| 2026-04-28 11:33 | 45.69221 | 21.26093 | 953 ft | 111 kts | 214° |
| 2026-04-28 11:33 | 45.68685 | 21.25454 | 885 ft | 80 kts | 256° |
| 2026-04-28 11:33 | 45.68565 | 21.24875 | 772 ft | 48 kts | 273° |
| 2026-04-28 11:34 | 45.68615 | 21.24580 | 604 ft | 27 kts | 321° |
| 2026-04-28 11:34 | 45.68703 | 21.24558 | 462 ft | 5 kts | 329° |
| 2026-04-28 11:34 | 45.68708 | 21.24574 | 305 ft | 4 kts | 301° |
| 2026-04-28 11:34 | 45.68704 | 21.24582 | 291 ft | 3 kts | 323° |
| 2026-04-28 11:35 | 45.68725 | 21.24469 | 376 ft | 23 kts | 265° |
| 2026-04-28 11:35 | 45.68523 | 21.24106 | 435 ft | 63 kts | 230° |
| 2026-04-28 11:35 | 45.68197 | 21.23610 | 565 ft | 74 kts | 227° |
| 2026-04-28 11:35 | 45.67772 | 21.23095 | 638 ft | 87 kts | 213° |
| 2026-04-28 11:36 | 45.67247 | 21.22566 | 684 ft | 96 kts | 210° |
| 2026-04-28 11:36 | 45.66669 | 21.22031 | 695 ft | 102 kts | 209° |
| 2026-04-28 11:36 | 45.66050 | 21.21527 | 722 ft | 103 kts | 209° |
| 2026-04-28 11:36 | 45.65420 | 21.21038 | 786 ft | 103 kts | 206° |
| 2026-04-28 11:37 | 45.64761 | 21.20570 | 786 ft | 108 kts | 204° |
| 2026-04-28 11:37 | 45.64071 | 21.20138 | 822 ft | 104 kts | 191° |
| 2026-04-28 11:37 | 45.63321 | 21.20047 | 858 ft | 104 kts | 177° |
| 2026-04-28 11:37 | 45.62579 | 21.20069 | 875 ft | 108 kts | 175° |
| 2026-04-28 11:38 | 45.61807 | 21.20097 | 836 ft | 116 kts | 180° |
| 2026-04-28 11:38 | 45.61046 | 21.19804 | 835 ft | 111 kts | 203° |
| 2026-04-28 11:38 | 45.60360 | 21.19333 | 903 ft | 100 kts | 202° |
| 2026-04-28 11:38 | 45.59732 | 21.18987 | 1025 ft | 98 kts | 200° |
| 2026-04-28 11:39 | 45.59073 | 21.18616 | 1024 ft | 106 kts | 199° |
| 2026-04-28 11:39 | 45.58388 | 21.18207 | 1028 ft | 107 kts | 203° |
| 2026-04-28 11:39 | 45.57712 | 21.17739 | 1043 ft | 108 kts | 208° |
| 2026-04-28 11:39 | 45.57057 | 21.17192 | 1047 ft | 109 kts | 211° |
| 2026-04-28 11:40 | 45.56413 | 21.16625 | 1078 ft | 109 kts | 213° |
| 2026-04-28 11:40 | 45.55768 | 21.16038 | 1103 ft | 110 kts | 213° |
| 2026-04-28 11:40 | 45.55105 | 21.15476 | 1101 ft | 112 kts | 208° |
| 2026-04-28 11:40 | 45.54461 | 21.14890 | 1129 ft | 109 kts | 212° |
| 2026-04-28 11:41 | 45.53814 | 21.14296 | 1146 ft | 112 kts | 215° |
| 2026-04-28 11:41 | 45.53179 | 21.13642 | 1143 ft | 114 kts | 219° |
| 2026-04-28 11:41 | 45.52583 | 21.12931 | 1136 ft | 111 kts | 221° |
| 2026-04-28 11:41 | 45.52012 | 21.12225 | 1140 ft | 109 kts | 221° |
| 2026-04-28 11:42 | 45.51441 | 21.11504 | 1121 ft | 112 kts | 220° |
| 2026-04-28 11:42 | 45.50833 | 21.10814 | 1075 ft | 109 kts | 218° |
| 2026-04-28 11:42 | 45.50222 | 21.10157 | 1035 ft | 111 kts | 217° |
| 2026-04-28 11:42 | 45.49601 | 21.09483 | 954 ft | 113 kts | 218° |
| 2026-04-28 11:43 | 45.48976 | 21.08802 | 905 ft | 111 kts | 219° |
| 2026-04-28 11:43 | 45.48358 | 21.08152 | 886 ft | 111 kts | 216° |
| 2026-04-28 11:43 | 45.47735 | 21.07516 | 844 ft | 109 kts | 216° |
| 2026-04-28 11:43 | 45.47118 | 21.06876 | 821 ft | 111 kts | 215° |
| 2026-04-28 11:44 | 45.46455 | 21.06290 | 769 ft | 111 kts | 212° |
| 2026-04-28 11:44 | 45.45801 | 21.05736 | 769 ft | 107 kts | 214° |
| 2026-04-28 11:44 | 45.45177 | 21.05188 | 781 ft | 107 kts | 208° |
| 2026-04-28 11:44 | 45.44512 | 21.04670 | 735 ft | 109 kts | 208° |
| 2026-04-28 11:45 | 45.43860 | 21.04092 | 684 ft | 112 kts | 217° |
| 2026-04-28 11:45 | 45.43213 | 21.03493 | 651 ft | 108 kts | 214° |
| 2026-04-28 11:45 | 45.42574 | 21.02989 | 669 ft | 107 kts | 207° |
| 2026-04-28 11:45 | 45.41919 | 21.02459 | 643 ft | 109 kts | 213° |
| 2026-04-28 11:46 | 45.41285 | 21.01855 | 594 ft | 110 kts | 221° |
| 2026-04-28 11:46 | 45.40671 | 21.01359 | 726 ft | 99 kts | 208° |
| 2026-04-28 11:46 | 45.40059 | 21.00900 | 764 ft | 101 kts | 204° |
| 2026-04-28 11:46 | 45.39402 | 21.00496 | 742 ft | 104 kts | 201° |
| 2026-04-28 11:47 | 45.38725 | 21.00101 | 749 ft | 106 kts | 200° |
| 2026-04-28 11:47 | 45.38042 | 20.99749 | 802 ft | 104 kts | 198° |
| 2026-04-28 11:47 | 45.37356 | 20.99433 | 835 ft | 103 kts | 197° |
| 2026-04-28 11:47 | 45.36666 | 20.99151 | 860 ft | 105 kts | 193° |
| 2026-04-28 11:48 | 45.35956 | 20.98898 | 887 ft | 104 kts | 192° |
| 2026-04-28 11:48 | 45.35255 | 20.98612 | 898 ft | 105 kts | 199° |
| 2026-04-28 11:48 | 45.34561 | 20.98255 | 894 ft | 106 kts | 198° |
| 2026-04-28 11:48 | 45.34100 | 20.98017 | 885 ft | 108 kts | 199° |
| 2026-04-28 11:49 | 45.33175 | 20.97456 | 853 ft | 109 kts | 203° |
| 2026-04-28 11:49 | 45.32479 | 20.97036 | 841 ft | 107 kts | 202° |
| 2026-04-28 11:49 | 45.32014 | 20.96771 | 852 ft | 106 kts | 200° |
| 2026-04-28 11:49 | 45.31098 | 20.96277 | 855 ft | 106 kts | 197° |
| 2026-04-28 11:50 | 45.30404 | 20.95910 | 859 ft | 107 kts | 201° |
| 2026-04-28 11:50 | 45.29701 | 20.95527 | 899 ft | 110 kts | 200° |
| 2026-04-28 11:50 | 45.29217 | 20.95264 | 912 ft | 111 kts | 197° |
| 2026-04-28 11:50 | 45.28458 | 20.94899 | 847 ft | 118 kts | 199° |
| 2026-04-28 11:51 | 45.27703 | 20.94551 | 854 ft | 115 kts | 199° |
| 2026-04-28 11:51 | 45.26955 | 20.94199 | 861 ft | 112 kts | 198° |
| 2026-04-28 11:51 | 45.26221 | 20.93837 | 824 ft | 112 kts | 202° |
| 2026-04-28 11:51 | 45.25503 | 20.93405 | 733 ft | 113 kts | 205° |
| 2026-04-28 11:52 | 45.24794 | 20.93010 | 721 ft | 106 kts | 202° |
| 2026-04-28 11:52 | 45.24108 | 20.92658 | 687 ft | 105 kts | 201° |
| 2026-04-28 11:52 | 45.23427 | 20.92325 | 685 ft | 102 kts | 202° |
| 2026-04-28 11:52 | 45.22768 | 20.91985 | 735 ft | 101 kts | 200° |
| 2026-04-28 11:53 | 45.22097 | 20.91638 | 711 ft | 105 kts | 201° |
| 2026-04-28 11:53 | 45.21426 | 20.91255 | 731 ft | 103 kts | 202° |
| 2026-04-28 11:53 | 45.20749 | 20.90895 | 724 ft | 105 kts | 201° |
| 2026-04-28 11:53 | 45.20071 | 20.90507 | 714 ft | 106 kts | 204° |
| 2026-04-28 11:54 | 45.19411 | 20.90110 | 785 ft | 100 kts | 201° |
| 2026-04-28 11:54 | 45.18766 | 20.89735 | 829 ft | 98 kts | 203° |
| 2026-04-28 11:54 | 45.18129 | 20.89370 | 866 ft | 99 kts | 206° |
| 2026-04-28 11:54 | 45.17494 | 20.88978 | 952 ft | 100 kts | 209° |
| 2026-04-28 11:55 | 45.16885 | 20.88496 | 991 ft | 100 kts | 216° |
| 2026-04-28 11:55 | 45.16306 | 20.87930 | 1029 ft | 103 kts | 220° |
| 2026-04-28 11:55 | 45.15733 | 20.87298 | 1039 ft | 106 kts | 224° |
| 2026-04-28 11:55 | 45.15167 | 20.86616 | 1006 ft | 108 kts | 224° |
| 2026-04-28 11:56 | 45.14599 | 20.85937 | 1020 ft | 107 kts | 222° |
| 2026-04-28 11:56 | 45.14065 | 20.85220 | 1048 ft | 104 kts | 231° |
| 2026-04-28 11:56 | 45.13627 | 20.84373 | 981 ft | 107 kts | 239° |
| 2026-04-28 11:56 | 45.13213 | 20.83526 | 1011 ft | 103 kts | 237° |
| 2026-04-28 11:57 | 45.12769 | 20.82713 | 983 ft | 106 kts | 234° |
| 2026-04-28 11:57 | 45.12355 | 20.81854 | 904 ft | 111 kts | 238° |
| 2026-04-28 11:57 | 45.11905 | 20.80844 | 583 ft | 121 kts | 239° |
| 2026-04-28 11:57 | 45.11482 | 20.79859 | 496 ft | 113 kts | 237° |
| 2026-04-28 11:58 | 45.11067 | 20.78917 | 466 ft | 112 kts | 236° |
| 2026-04-28 11:58 | 45.10610 | 20.78024 | 429 ft | 113 kts | 224° |
| 2026-04-28 11:58 | 45.10023 | 20.77329 | 467 ft | 108 kts | 212° |
| 2026-04-28 11:58 | 45.09404 | 20.76724 | 469 ft | 108 kts | 210° |
| 2026-04-28 11:59 | 45.08778 | 20.76126 | 470 ft | 108 kts | 212° |
| 2026-04-28 11:59 | 45.08093 | 20.75651 | 449 ft | 110 kts | 198° |
| 2026-04-28 11:59 | 45.07369 | 20.75258 | 400 ft | 113 kts | 203° |
| 2026-04-28 11:59 | 45.06655 | 20.74839 | 407 ft | 111 kts | 198° |
| 2026-04-28 12:00 | 45.05924 | 20.74474 | 387 ft | 112 kts | 196° |
| 2026-04-28 12:00 | 45.05188 | 20.74135 | 387 ft | 112 kts | 196° |
| 2026-04-28 12:00 | 45.04439 | 20.73834 | 396 ft | 108 kts | 193° |
| 2026-04-28 12:00 | 45.03706 | 20.73607 | 413 ft | 108 kts | 191° |
| 2026-04-28 12:01 | 45.02994 | 20.73373 | 461 ft | 107 kts | 191° |
| 2026-04-28 12:01 | 45.02257 | 20.73270 | 473 ft | 107 kts | 188° |
| 2026-04-28 12:01 | 45.01553 | 20.73060 | 555 ft | 103 kts | 193° |
| 2026-04-28 12:01 | 45.00881 | 20.72682 | 578 ft | 105 kts | 206° |
| 2026-04-28 12:02 | 45.00227 | 20.72221 | 604 ft | 107 kts | 201° |
| 2026-04-28 12:02 | 44.99530 | 20.71783 | 575 ft | 112 kts | 205° |
| 2026-04-28 12:02 | 44.98831 | 20.71329 | 626 ft | 111 kts | 201° |
| 2026-04-28 12:02 | 44.98188 | 20.70756 | 636 ft | 107 kts | 221° |
| 2026-04-28 12:03 | 44.97697 | 20.69961 | 673 ft | 108 kts | 230° |
| 2026-04-28 12:03 | 44.97221 | 20.69146 | 699 ft | 107 kts | 227° |
| 2026-04-28 12:03 | 44.96638 | 20.68515 | 729 ft | 107 kts | 208° |
| 2026-04-28 12:03 | 44.95952 | 20.68096 | 758 ft | 108 kts | 200° |
| 2026-04-28 12:04 | 44.95242 | 20.67699 | 749 ft | 111 kts | 204° |
| 2026-04-28 12:04 | 44.94529 | 20.67332 | 831 ft | 109 kts | 197° |
| 2026-04-28 12:04 | 44.93965 | 20.67105 | 847 ft | 111 kts | 196° |
| 2026-04-28 12:04 | 44.93239 | 20.66773 | 860 ft | 110 kts | 193° |
| 2026-04-28 12:05 | 44.92546 | 20.66625 | 797 ft | 115 kts | 186° |
| 2026-04-28 12:05 | 44.91783 | 20.66441 | 837 ft | 112 kts | 193° |
| 2026-04-28 12:05 | 44.91045 | 20.66074 | 811 ft | 113 kts | 207° |
| 2026-04-28 12:05 | 44.90400 | 20.65505 | 874 ft | 107 kts | 214° |
| 2026-04-28 12:06 | 44.89879 | 20.64820 | 975 ft | 102 kts | 219° |
| 2026-04-28 12:06 | 44.89224 | 20.64278 | 901 ft | 114 kts | 206° |
| 2026-04-28 12:06 | 44.88537 | 20.63763 | 885 ft | 115 kts | 218° |
| 2026-04-28 12:06 | 44.88040 | 20.62926 | 935 ft | 110 kts | 235° |
| 2026-04-28 12:07 | 44.87677 | 20.61944 | 865 ft | 110 kts | 249° |
| 2026-04-28 12:07 | 44.87358 | 20.61007 | 944 ft | 109 kts | 242° |
| 2026-04-28 12:07 | 44.86990 | 20.60032 | 886 ft | 111 kts | 245° |
| 2026-04-28 12:07 | 44.86637 | 20.59083 | 882 ft | 110 kts | 245° |
| 2026-04-28 12:08 | 44.86144 | 20.58263 | 805 ft | 113 kts | 218° |
| 2026-04-28 12:08 | 44.85478 | 20.57689 | 756 ft | 112 kts | 209° |
| 2026-04-28 12:08 | 44.84791 | 20.57188 | 711 ft | 112 kts | 204° |
| 2026-04-28 12:08 | 44.84123 | 20.56686 | 738 ft | 103 kts | 205° |
| 2026-04-28 12:09 | 44.83483 | 20.56267 | 823 ft | 101 kts | 202° |
| 2026-04-28 12:09 | 44.82880 | 20.55885 | 1024 ft | 87 kts | 201° |
| 2026-04-28 12:09 | 44.82361 | 20.55530 | 1219 ft | 84 kts | 210° |
| 2026-04-28 12:09 | 44.81874 | 20.54981 | 1274 ft | 96 kts | 217° |
| 2026-04-28 12:10 | 44.81324 | 20.54327 | 1216 ft | 111 kts | 220° |
| 2026-04-28 12:10 | 44.80737 | 20.53621 | 1079 ft | 107 kts | 224° |
| 2026-04-28 12:10 | 44.80237 | 20.53026 | 1080 ft | 80 kts | 216° |
| 2026-04-28 12:10 | 44.79875 | 20.52612 | 1211 ft | 57 kts | 219° |
| 2026-04-28 12:11 | 44.79581 | 20.52269 | 1356 ft | 56 kts | 216° |
| 2026-04-28 12:11 | 44.79235 | 20.51906 | 1422 ft | 69 kts | 218° |
| 2026-04-28 12:11 | 44.78842 | 20.51460 | 1432 ft | 76 kts | 229° |
| 2026-04-28 12:11 | 44.78444 | 20.50987 | 1392 ft | 72 kts | 224° |
| 2026-04-28 12:12 | 44.78098 | 20.50614 | 1213 ft | 55 kts | 224° |
| 2026-04-28 12:12 | 44.77824 | 20.50363 | 1033 ft | 42 kts | 219° |
| 2026-04-28 12:12 | 44.77624 | 20.50037 | 881 ft | 44 kts | 230° |
| 2026-04-28 12:12 | 44.77468 | 20.49730 | 783 ft | 30 kts | 195° |
| 2026-04-28 12:13 | 44.77347 | 20.49693 | 651 ft | 18 kts | 117° |
| 2026-04-28 12:13 | 44.77312 | 20.49805 | 571 ft | 6 kts | 82° |
| 2026-04-28 12:13 | 44.77309 | 20.49849 | 522 ft | 3 kts | 112° |
| 2026-04-28 12:13 | 44.77307 | 20.49890 | 512 ft | 7 kts | 118° |
| 2026-04-28 12:14 | 44.77204 | 20.49890 | 614 ft | 49 kts | 225° |
| 2026-04-28 12:14 | 44.77074 | 20.49345 | 762 ft | 73 kts | 250° |
| 2026-04-28 12:14 | 44.76829 | 20.48615 | 881 ft | 89 kts | 236° |
| 2026-04-28 12:14 | 44.76535 | 20.47865 | 852 ft | 70 kts | 251° |
| 2026-04-28 12:15 | 44.76374 | 20.47484 | 813 ft | 34 kts | 240° |
| 2026-04-28 12:15 | 44.76262 | 20.47361 | 699 ft | 14 kts | 217° |
| 2026-04-28 12:15 | 44.76180 | 20.47294 | 619 ft | 14 kts | 235° |
| 2026-04-28 12:15 | 44.76152 | 20.47245 | 605 ft | 7 kts | 296° |
| 2026-04-28 12:16 | 44.76155 | 20.47212 | 599 ft | 1 kts | 283° |
| 2026-04-28 12:16 | 44.76156 | 20.47210 | 579 ft | 0 kts | 275° |
| 2026-04-28 12:24 | 44.76155 | 20.47210 | 579 ft | 1 kts | 256° |
| 2026-04-28 12:25 | 44.76149 | 20.47202 | 588 ft | 2 kts | 281° |
| 2026-04-28 12:25 | 44.76085 | 20.47086 | 688 ft | 21 kts | 227° |
| 2026-04-28 12:25 | 44.75955 | 20.46825 | 823 ft | 47 kts | 250° |
| 2026-04-28 12:25 | 44.75899 | 20.46232 | 897 ft | 72 kts | 264° |
| 2026-04-28 12:26 | 44.75838 | 20.45444 | 942 ft | 90 kts | 263° |
| 2026-04-28 12:26 | 44.75713 | 20.44561 | 1076 ft | 88 kts | 256° |
| 2026-04-28 12:26 | 44.75529 | 20.43741 | 1190 ft | 90 kts | 244° |
| 2026-04-28 12:26 | 44.75232 | 20.42916 | 1158 ft | 100 kts | 245° |
| 2026-04-28 12:27 | 44.74905 | 20.41992 | 1073 ft | 109 kts | 248° |
| 2026-04-28 12:27 | 44.74601 | 20.41009 | 1049 ft | 111 kts | 249° |
| 2026-04-28 12:27 | 44.74366 | 20.39984 | 1036 ft | 110 kts | 266° |
| 2026-04-28 12:27 | 44.74421 | 20.38946 | 1090 ft | 105 kts | 281° |
| 2026-04-28 12:28 | 44.74615 | 20.37945 | 1080 ft | 105 kts | 294° |
| 2026-04-28 12:28 | 44.74920 | 20.36998 | 1045 ft | 114 kts | 301° |
| 2026-04-28 12:28 | 44.75322 | 20.36008 | 930 ft | 114 kts | 305° |
| 2026-04-28 12:28 | 44.75754 | 20.35058 | 839 ft | 115 kts | 307° |
| 2026-04-28 12:29 | 44.76443 | 20.33502 | 718 ft | 115 kts | 303° |
| 2026-04-28 12:29 | 44.76584 | 20.33178 | 695 ft | 112 kts | 305° |
| 2026-04-28 12:29 | 44.76950 | 20.32354 | 836 ft | 93 kts | 304° |
| 2026-04-28 12:30 | 44.77298 | 20.31584 | 950 ft | 93 kts | 307° |
| 2026-04-28 12:30 | 44.77715 | 20.30865 | 979 ft | 103 kts | 313° |
| 2026-04-28 12:30 | 44.78207 | 20.30068 | 829 ft | 109 kts | 319° |
| 2026-04-28 12:30 | 44.78745 | 20.29505 | 909 ft | 86 kts | 339° |
| 2026-04-28 12:31 | 44.79299 | 20.29475 | 930 ft | 80 kts | 20° |
| 2026-04-28 12:31 | 44.79738 | 20.29859 | 968 ft | 71 kts | 35° |
| 2026-04-28 12:31 | 44.80145 | 20.30290 | 882 ft | 78 kts | 39° |
| 2026-04-28 12:31 | 44.80501 | 20.30870 | 782 ft | 74 kts | 45° |
| 2026-04-28 12:32 | 44.80903 | 20.31126 | 707 ft | 61 kts | 353° |
| 2026-04-28 12:32 | 44.81255 | 20.30959 | 591 ft | 48 kts | 327° |
| 2026-04-28 12:32 | 44.81482 | 20.30688 | 505 ft | 37 kts | 302° |
| 2026-04-28 12:32 | 44.81598 | 20.30450 | 429 ft | 24 kts | 303° |
| 2026-04-28 12:33 | 44.81679 | 20.30278 | 385 ft | 17 kts | 300° |
| 2026-04-28 12:33 | 44.81721 | 20.30189 | 334 ft | 7 kts | 292° |
| 2026-04-28 12:33 | 44.81738 | 20.30142 | 326 ft | 5 kts | 309° |
| 2026-04-28 12:33 | 44.81771 | 20.30128 | 323 ft | 5 kts | 311° |
| 2026-04-28 12:34 | 44.81793 | 20.30087 | 314 ft | 4 kts | 341° |
| 2026-04-28 12:34 | 44.81802 | 20.30079 | 311 ft | 1 kts | 14° |
| 2026-04-28 12:34 | 44.81803 | 20.30081 | 306 ft | 1 kts | 25° |
| 2026-04-28 12:34 | 44.81805 | 20.30079 | 302 ft | 1 kts | 38° |
| 2026-04-28 12:35 | 44.81806 | 20.30080 | 301 ft | 0 kts | 33° |